Point Commerce, Indiana
Current Conditions -  °F | °C
As of 5:53 PM on Monday 20 Oct 2014 (Local Time) from KBMG Reporting Station
Scattered Clouds Scattered Clouds  
Wind Chill: 68°   Ceiling: Unl
Heat Index: 68°   Visibility: 10mi
Dew Point: 44°   Wind: 9mph
Humidity: 42%   Direction: 290°WNW
Pressure: 29.86"   Gusts: NA
Location:  39.1287°N, 87.0295°W
Report Text: KBMG 202153Z 29008KT 10SM SCT055 20/07 A2986 RMK AO2 SLP109 T02000067 $
Loading
Personal Weather Stations






























Interactive Weather Map
Tropical Storm Tracking
New forecast layout! Learn more

10-Day Weather Forecast

Advertisements
Track Severe Weather on mobile